Time;durP1;ratioP1;P1;durP2;ratioP2;P2;SDS_P1;SDS_P2;PMS_P1;PMS_P2;Temp;Humidity;BMP_temperature;BMP_pressure;BME280_temperature;BME280_humidity;BME280_pressure;Samples;Min_cycle;Max_cycle;Signal;HPM_P1;HPM_P2
2022/01/08 00:00:21;;;;;;;;;;;;;;;19.46;46.12;100393.47;2072169;28;19944;-64
2022/01/08 00:01:21;;;;;;;;;;;;;;;19.46;46.13;100390.72;2069322;28;19921;-64
2022/01/08 00:02:22;;;;;;;;;;;;;;;19.46;46.22;100382.53;2068078;28;20000;-64
2022/01/08 00:03:22;;;;;;;;;;;;;;;19.44;46.27;100385.41;2074442;28;20388;-64
2022/01/08 00:04:22;;;;;;;;;;;;;;;19.45;46.18;100383.50;2069462;28;19947;-64
2022/01/08 00:05:23;;;;;;;;;;;;;;;19.45;46.15;100380.78;2067980;28;19917;-64
2022/01/08 00:06:23;;;;;;;;;;;;;;;19.45;46.16;100378.06;2072485;28;20000;-64
2022/01/08 00:07:23;;;;;;;;;;;;;;;19.45;46.14;100386.25;2072302;28;20080;-64
2022/01/08 00:08:24;;;;;;;;;;;;;;;19.45;46.19;100380.78;2071536;28;19924;-64
2022/01/08 00:09:24;;;;;;;;;;;;;;;19.44;46.13;100376.34;2073356;28;19939;-64
2022/01/08 00:10:24;;;;;;;;;;;;;;;19.44;46.22;100382.66;2068845;28;19932;-64
2022/01/08 00:11:27;;;;;;;;;;;;;;;19.44;46.27;100373.59;2067127;28;20443;-64
2022/01/08 00:12:28;;;;;;;;;;;;;;;19.44;46.16;100376.34;2068374;28;20051;-63
2022/01/08 00:13:28;;;;;;;;;;;;;;;19.44;46.23;100373.59;2071755;28;20368;-63
2022/01/08 00:14:29;;;;;;;;;;;;;;;19.44;46.19;100369.00;2071843;28;19913;-63
2022/01/08 00:15:30;;;;;;;;;;;;;;;19.44;46.16;100370.88;2071621;28;19995;-63
2022/01/08 00:16:33;;;;;;;;;;;;;;;19.43;46.25;100371.88;2072830;28;19928;-63
2022/01/08 00:17:34;;;;;;;;;;;;;;;19.45;46.13;100369.84;2068310;28;20382;-63
2022/01/08 00:18:34;;;;;;;;;;;;;;;19.43;46.15;100364.53;2072524;28;19913;-63
2022/01/08 00:19:35;;;;;;;;;;;;;;;19.43;46.13;100378.22;2074477;28;19921;-63
2022/01/08 00:20:35;;;;;;;;;;;;;;;19.43;46.16;100361.81;2063146;28;20686;-64
2022/01/08 00:21:37;;;;;;;;;;;;;;;19.42;46.13;100359.22;2065891;28;20253;-64
2022/01/08 00:22:37;;;;;;;;;;;;;;;19.42;46.16;100360.06;2072340;28;19916;-64
2022/01/08 00:23:37;;;;;;;;;;;;;;;19.42;46.16;100367.41;2067933;28;20484;-64
2022/01/08 00:24:38;;;;;;;;;;;;;;;19.41;46.16;100371.16;2074552;28;20012;-63
2022/01/08 00:25:38;;;;;;;;;;;;;;;19.41;46.15;100362.97;2068577;28;20438;-63
2022/01/08 00:26:38;;;;;;;;;;;;;;;19.41;46.15;100368.44;2072959;28;19970;-64
2022/01/08 00:27:39;;;;;;;;;;;;;;;19.40;46.24;100367.56;2073457;28;20658;-63
2022/01/08 00:28:39;;;;;;;;;;;;;;;19.39;46.26;100360.38;2070227;28;20384;-63
2022/01/08 00:29:40;;;;;;;;;;;;;;;19.40;46.30;100362.09;2065467;28;19921;-64
2022/01/08 00:30:40;;;;;;;;;;;;;;;19.39;46.24;100360.38;2064821;28;19921;-63
2022/01/08 00:31:41;;;;;;;;;;;;;;;19.38;46.22;100357.81;2072153;28;19909;-64
2022/01/08 00:32:42;;;;;;;;;;;;;;;19.38;46.34;100355.06;2072088;28;19948;-63
2022/01/08 00:33:42;;;;;;;;;;;;;;;19.38;46.24;100360.53;2073673;28;19909;-64
2022/01/08 00:34:42;;;;;;;;;;;;;;;19.36;46.33;100355.19;2069999;28;19924;-63
2022/01/08 00:35:43;;;;;;;;;;;;;;;19.37;46.36;100350.59;2071237;28;19923;-64
2022/01/08 00:36:43;;;;;;;;;;;;;;;19.36;46.29;100355.19;2070641;28;19952;-64
2022/01/08 00:37:44;;;;;;;;;;;;;;;19.36;46.30;100348.88;2068076;28;19916;-64
2022/01/08 00:38:44;;;;;;;;;;;;;;;19.35;46.31;100348.00;2073033;28;19944;-64
2022/01/08 00:39:44;;;;;;;;;;;;;;;19.36;46.39;100346.16;2069290;28;20017;-63
2022/01/08 00:40:45;;;;;;;;;;;;;;;19.36;46.39;100349.72;2072038;28;19909;-63
2022/01/08 00:41:45;;;;;;;;;;;;;;;19.35;46.31;100341.66;2069703;28;19909;-63
2022/01/08 00:42:45;;;;;;;;;;;;;;;19.35;46.40;100347.13;2071760;28;19920;-63
2022/01/08 00:43:45;;;;;;;;;;;;;;;19.34;46.24;100339.94;2067816;28;19921;-63
2022/01/08 00:44:46;;;;;;;;;;;;;;;19.33;46.39;100339.09;2069766;28;19913;-62
2022/01/08 00:45:47;;;;;;;;;;;;;;;19.32;46.44;100350.16;2068374;28;20055;-62
2022/01/08 00:46:47;;;;;;;;;;;;;;;19.32;46.39;100336.50;2069562;28;19916;-63
2022/01/08 00:47:47;;;;;;;;;;;;;;;19.31;46.41;100334.78;2073836;28;20306;-63
2022/01/08 00:48:48;;;;;;;;;;;;;;;19.30;46.51;100342.09;2068989;28;19989;-63
2022/01/08 00:49:48;;;;;;;;;;;;;;;19.30;46.39;100338.50;2071576;28;19967;-62
2022/01/08 00:50:50;;;;;;;;;;;;;;;19.30;46.52;100338.50;2071814;28;19963;-63
2022/01/08 00:51:51;;;;;;;;;;;;;;;19.28;46.48;100335.94;2069356;28;20030;-63
2022/01/08 00:52:51;;;;;;;;;;;;;;;19.27;46.33;100335.06;2075062;28;20512;-63
2022/01/08 00:53:52;;;;;;;;;;;;;;;19.26;46.48;100338.81;2071027;28;20315;-63
2022/01/08 00:54:52;;;;;;;;;;;;;;;19.25;46.55;100331.59;2071340;28;20222;-63
2022/01/08 00:55:52;;;;;;;;;;;;;;;19.24;46.46;100335.34;2067739;28;20935;-63
2022/01/08 00:56:52;;;;;;;;;;;;;;;19.24;46.53;100334.50;2062654;28;19914;-65
2022/01/08 00:57:53;;;;;;;;;;;;;;;19.23;46.61;100339.09;2061291;28;20400;-63
2022/01/08 00:58:53;;;;;;;;;;;;;;;19.23;46.51;100339.09;2071212;28;20534;-63
2022/01/08 00:59:53;;;;;;;;;;;;;;;19.22;46.49;100334.63;2072869;28;20237;-65
2022/01/08 01:00:54;;;;;;;;;;;;;;;19.21;46.56;100330.19;2071423;28;19920;-63
2022/01/08 01:01:54;;;;;;;;;;;;;;;19.21;46.59;100330.19;2069997;28;20393;-63
2022/01/08 01:02:54;;;;;;;;;;;;;;;19.20;46.54;100333.91;2072626;28;20406;-63
2022/01/08 01:03:55;;;;;;;;;;;;;;;19.20;46.62;100333.91;2071240;28;19917;-62
2022/01/08 01:04:55;;;;;;;;;;;;;;;19.20;46.57;100333.06;2074943;28;20662;-62
2022/01/08 01:05:55;;;;;;;;;;;;;;;19.20;46.61;100328.44;2073708;28;20398;-61
2022/01/08 01:06:56;;;;;;;;;;;;;;;19.20;46.53;100328.44;2073615;28;19921;-62
2022/01/08 01:07:56;;;;;;;;;;;;;;;19.21;46.64;100334.78;2070956;28;20431;-61
2022/01/08 01:08:56;;;;;;;;;;;;;;;19.20;46.58;100331.16;2069131;28;20644;-61
2022/01/08 01:09:57;;;;;;;;;;;;;;;19.20;46.63;100333.06;2070095;28;20618;-62
2022/01/08 01:10:57;;;;;;;;;;;;;;;19.19;46.57;100332.19;2070611;28;19920;-61
2022/01/08 01:11:58;;;;;;;;;;;;;;;19.20;46.57;100339.38;2072083;28;19939;-62
2022/01/08 01:12:58;;;;;;;;;;;;;;;19.20;46.67;100336.63;2070787;28;19928;-63
2022/01/08 01:13:58;;;;;;;;;;;;;;;19.19;46.60;100324.00;2071813;28;19924;-63
2022/01/08 01:14:59;;;;;;;;;;;;;;;19.19;46.54;100328.59;2066663;28;19991;-62
2022/01/08 01:16:01;;;;;;;;;;;;;;;19.18;46.59;100327.75;2065284;28;20043;-62
2022/01/08 01:17:02;;;;;;;;;;;;;;;19.16;46.60;100327.03;2076586;28;20613;-63
2022/01/08 01:18:02;;;;;;;;;;;;;;;19.17;46.61;100328.72;2075698;28;19913;-63
2022/01/08 01:19:04;;;;;;;;;;;;;;;19.16;46.65;100321.56;2068070;28;19944;-63
2022/01/08 01:20:06;;;;;;;;;;;;;;;19.16;46.69;100337.09;2074523;28;19913;-63
2022/01/08 01:21:06;;;;;;;;;;;;;;;19.16;46.68;100337.97;2076547;28;19924;-62
2022/01/08 01:22:07;;;;;;;;;;;;;;;19.16;46.59;100345.28;2071383;28;19909;-63
2022/01/08 01:23:14;;;;;;;;;;;;;;;19.14;46.75;100345.44;2076305;28;20303;-63
2022/01/08 01:24:20;;;;;;;;;;;;;;;19.14;46.57;100339.97;2075774;28;19913;-63
2022/01/08 01:25:26;;;;;;;;;;;;;;;19.14;46.59;100333.66;2075777;28;19913;-63
2022/01/08 01:26:29;;;;;;;;;;;;;;;19.14;46.71;100345.44;2074773;28;20057;-63
2022/01/08 01:29:59;;;;;;;;;;;;;;;19.14;46.72;100344.56;2074421;28;20026;-63
2022/01/08 01:41:26;;;;;;;;;;;;;;;19.10;46.67;100341.25;2073937;28;20012;-63
2022/01/08 01:42:51;;;;;;;;;;;;;;;19.11;46.69;100339.38;2073248;28;19935;-63
2022/01/08 01:47:33;;;;;;;;;;;;;;;19.09;46.65;100342.28;2076342;28;19909;-63
2022/01/08 01:48:33;;;;;;;;;;;;;;;19.10;46.65;100338.50;2068437;28;20005;-63
2022/01/08 01:49:35;;;;;;;;;;;;;;;19.10;46.70;100343.97;2072204;28;19994;-62
2022/01/08 01:50:35;;;;;;;;;;;;;;;19.10;46.77;100343.97;2069528;28;19905;-62
2022/01/08 01:51:35;;;;;;;;;;;;;;;19.12;46.69;100339.25;2070425;28;19943;-62
2022/01/08 01:52:36;;;;;;;;;;;;;;;19.14;46.62;100344.56;2072392;28;20090;-62
2022/01/08 01:53:36;;;;;;;;;;;;;;;19.16;46.66;100346.16;2069719;28;19928;-63
2022/01/08 01:54:37;;;;;;;;;;;;;;;19.16;46.56;100348.88;2073415;28;20169;-63
2022/01/08 01:55:37;;;;;;;;;;;;;;;19.20;46.50;100346.72;2071578;28;20031;-63
2022/01/08 01:56:38;;;;;;;;;;;;;;;19.23;46.38;100349.16;2076472;28;19924;-64
2022/01/08 01:57:38;;;;;;;;;;;;;;;19.26;46.37;100348.88;2071905;28;19943;-63
2022/01/08 01:58:39;;;;;;;;;;;;;;;19.28;46.28;100342.25;2073049;28;20428;-63
2022/01/08 01:59:40;;;;;;;;;;;;;;;19.31;46.23;100341.09;2076237;28;19916;-64
2022/01/08 02:00:42;;;;;;;;;;;;;;;19.34;46.22;100339.94;2074663;28;20208;-64
2022/01/08 02:01:42;;;;;;;;;;;;;;;19.35;46.13;100336.19;2071958;28;19906;-63
2022/01/08 02:02:42;;;;;;;;;;;;;;;19.38;45.95;100342.25;2074312;28;19968;-64
2022/01/08 02:03:43;;;;;;;;;;;;;;;19.40;46.02;100344.81;2072626;28;20003;-64
2022/01/08 02:04:43;;;;;;;;;;;;;;;19.42;46.04;100342.81;2075152;28;19920;-63
2022/01/08 02:05:46;;;;;;;;;;;;;;;19.43;46.01;100333.63;2073807;28;19921;-64
2022/01/08 02:06:47;;;;;;;;;;;;;;;19.47;45.86;100337.75;2073101;28;19944;-63
2022/01/08 02:07:47;;;;;;;;;;;;;;;19.48;45.92;100336.78;2070675;28;20379;-63
2022/01/08 02:08:48;;;;;;;;;;;;;;;19.50;45.83;100334.75;2067994;28;20346;-63
2022/01/08 02:09:48;;;;;;;;;;;;;;;19.51;45.79;100336.47;2068859;28;20636;-64
2022/01/08 02:10:48;;;;;;;;;;;;;;;19.54;45.79;100340.78;2068373;28;20387;-63
2022/01/08 02:12:02;;;;;;;;;;;;;;;19.55;45.64;100329.72;2069929;28;20126;-63
2022/01/08 02:13:02;;;;;;;;;;;;;;;19.59;45.67;100328.38;2074678;28;20195;-63
2022/01/08 02:14:03;;;;;;;;;;;;;;;19.61;45.62;100331.84;2074576;28;19913;-63
2022/01/08 02:15:04;;;;;;;;;;;;;;;19.62;45.54;100328.09;2073006;28;19913;-63
2022/01/08 02:16:06;;;;;;;;;;;;;;;19.63;45.58;100332.56;2073929;28;19955;-63
2022/01/08 02:17:07;;;;;;;;;;;;;;;19.65;45.48;100333.28;2075090;28;19917;-63
2022/01/08 02:18:07;;;;;;;;;;;;;;;19.68;45.42;100337.63;2076253;28;19998;-63
2022/01/08 02:19:07;;;;;;;;;;;;;;;19.68;45.39;100333.00;2071610;28;19913;-63
2022/01/08 02:20:08;;;;;;;;;;;;;;;19.69;45.38;100333.84;2073085;28;19927;-63
2022/01/08 02:21:09;;;;;;;;;;;;;;;19.72;45.36;100327.22;2069727;28;19917;-63
2022/01/08 02:22:15;;;;;;;;;;;;;;;19.72;45.41;100333.59;2073591;28;19948;-63
2022/01/08 02:23:15;;;;;;;;;;;;;;;19.72;45.42;100330.84;2075273;28;19952;-64
2022/01/08 02:24:16;;;;;;;;;;;;;;;19.70;45.40;100333.72;2069551;28;19966;-64
2022/01/08 02:25:20;;;;;;;;;;;;;;;19.68;45.51;100333.00;2075864;28;20210;-64
2022/01/08 02:26:20;;;;;;;;;;;;;;;19.66;45.56;100329.53;2075973;28;19931;-64
2022/01/08 02:27:21;;;;;;;;;;;;;;;19.66;45.64;100331.41;2069502;28;19928;-63
2022/01/08 02:28:22;;;;;;;;;;;;;;;19.62;45.70;100322.63;2073798;28;19990;-63
2022/01/08 02:29:23;;;;;;;;;;;;;;;19.61;45.67;100325.50;2075350;28;19998;-64
2022/01/08 02:30:24;;;;;;;;;;;;;;;19.56;45.71;100334.16;2073816;28;19916;-64
2022/01/08 02:31:25;;;;;;;;;;;;;;;19.52;45.85;100324.50;2074695;28;20013;-63
2022/01/08 02:32:28;;;;;;;;;;;;;;;19.51;45.79;100335.63;2076253;28;19982;-64
2022/01/08 02:33:29;;;;;;;;;;;;;;;19.47;45.94;100330.41;2073449;28;19966;-63
2022/01/08 02:34:30;;;;;;;;;;;;;;;19.46;46.02;100328.69;2073252;28;20000;-64
2022/01/08 02:35:30;;;;;;;;;;;;;;;19.45;46.16;100327.00;2072141;28;20406;-64
2022/01/08 02:36:31;;;;;;;;;;;;;;;19.45;46.06;100320.63;2076196;28;19924;-64
2022/01/08 02:37:33;;;;;;;;;;;;;;;19.44;46.16;100319.78;2076172;28;20131;-64
2022/01/08 02:38:34;;;;;;;;;;;;;;;19.44;46.22;100318.94;2074164;28;19921;-64
2022/01/08 02:39:40;;;;;;;;;;;;;;;19.45;46.16;100323.38;2076266;28;19916;-64
2022/01/08 02:40:49;;;;;;;;;;;;;;;19.45;46.23;100312.44;2074944;28;19916;-64
2022/01/08 02:41:59;;;;;;;;;;;;;;;19.47;46.22;100318.63;2076433;28;19970;-64
2022/01/08 02:43:02;;;;;;;;;;;;;;;19.47;46.22;100313.16;2075790;28;19920;-63
2022/01/08 02:44:02;;;;;;;;;;;;;;;19.48;46.16;100321.22;2076071;28;20203;-64
2022/01/08 02:45:03;;;;;;;;;;;;;;;19.48;46.17;100309.44;2073375;28;19917;-64
2022/01/08 02:46:03;;;;;;;;;;;;;;;19.49;46.11;100306.53;2075597;28;20437;-64
2022/01/08 02:47:03;;;;;;;;;;;;;;;19.51;46.22;100314.59;2075387;28;19924;-64
2022/01/08 02:48:04;;;;;;;;;;;;;;;19.52;46.16;100308.09;2076432;28;19917;-64
2022/01/08 02:49:05;;;;;;;;;;;;;;;19.53;46.18;100306.25;2072570;28;19920;-64
2022/01/08 02:50:05;;;;;;;;;;;;;;;19.53;46.20;100312.59;2075444;28;19975;-64
2022/01/08 02:51:05;;;;;;;;;;;;;;;19.54;46.08;100307.97;2075567;28;19916;-64
2022/01/08 02:52:07;;;;;;;;;;;;;;;19.53;46.10;100309.00;2074203;28;20467;-64
2022/01/08 02:53:07;;;;;;;;;;;;;;;19.55;46.04;100310.56;2076055;28;20446;-64
2022/01/08 02:54:09;;;;;;;;;;;;;;;19.56;46.05;100315.00;2071771;28;20537;-64
2022/01/08 02:55:10;;;;;;;;;;;;;;;19.57;46.06;100314.00;2075908;28;19964;-64
2022/01/08 02:56:11;;;;;;;;;;;;;;;19.57;46.04;100308.53;2065414;28;19982;-65
2022/01/08 02:57:11;;;;;;;;;;;;;;;19.59;45.93;100309.25;2065436;28;20287;-64
2022/01/08 02:58:11;;;;;;;;;;;;;;;19.59;45.96;100306.50;2072109;28;19913;-63
2022/01/08 02:59:15;;;;;;;;;;;;;;;19.60;45.94;100305.50;2076733;28;20109;-64
2022/01/08 03:00:16;;;;;;;;;;;;;;;19.62;46.01;100300.75;2072384;28;20229;-64
2022/01/08 03:01:17;;;;;;;;;;;;;;;19.63;45.85;100302.47;2075164;28;19986;-64
2022/01/08 03:02:17;;;;;;;;;;;;;;;19.65;45.96;100302.34;2073751;28;20283;-64
2022/01/08 03:03:17;;;;;;;;;;;;;;;19.65;45.98;100305.94;2075369;28;20441;-64
2022/01/08 03:04:18;;;;;;;;;;;;;;;19.67;45.86;100312.16;2076682;28;20746;-64
2022/01/08 03:05:18;;;;;;;;;;;;;;;19.68;45.98;100300.19;2073495;28;19917;-64
2022/01/08 03:06:18;;;;;;;;;;;;;;;19.68;45.97;100299.34;2075565;28;20058;-64
2022/01/08 03:07:19;;;;;;;;;;;;;;;19.69;45.93;100307.38;2073083;28;19919;-64
2022/01/08 03:08:19;;;;;;;;;;;;;;;19.70;45.86;100295.44;2075710;28;19927;-64
2022/01/08 03:09:19;;;;;;;;;;;;;;;19.73;45.90;100296.16;2073157;28;19979;-63
2022/01/08 03:10:20;;;;;;;;;;;;;;;19.75;45.76;100294.13;2073445;28;20122;-63
2022/01/08 03:11:20;;;;;;;;;;;;;;;19.74;45.75;100295.13;2071774;28;19917;-64
2022/01/08 03:12:20;;;;;;;;;;;;;;;19.76;45.85;100293.13;2071213;28;20350;-64
2022/01/08 03:13:21;;;;;;;;;;;;;;;19.77;45.75;100292.09;2075540;28;20390;-64
2022/01/08 03:14:21;;;;;;;;;;;;;;;19.77;45.76;100298.44;2074850;28;20303;-64
2022/01/08 03:15:23;;;;;;;;;;;;;;;19.79;45.81;100298.28;2074595;28;19920;-64
2022/01/08 03:16:23;;;;;;;;;;;;;;;19.80;45.58;100294.53;2073474;28;19909;-64
2022/01/08 03:17:24;;;;;;;;;;;;;;;19.81;45.73;100288.06;2074776;28;20462;-64
2022/01/08 03:18:24;;;;;;;;;;;;;;;19.81;45.76;100294.38;2075544;28;19913;-64
2022/01/08 03:19:25;;;;;;;;;;;;;;;19.83;45.77;100288.75;2070484;28;19917;-63
2022/01/08 03:20:25;;;;;;;;;;;;;;;19.85;45.55;100293.06;2074883;28;20027;-64
2022/01/08 03:21:34;;;;;;;;;;;;;;;19.84;45.53;100299.56;2075399;28;19917;-64
2022/01/08 03:22:35;;;;;;;;;;;;;;;19.85;45.55;100295.81;2072503;28;19913;-64
2022/01/08 03:23:42;;;;;;;;;;;;;;;19.87;45.59;100291.06;2090252;28;19917;-62
2022/01/08 03:24:43;;;;;;;;;;;;;;;19.89;45.58;100291.78;2085971;28;20011;-62
2022/01/08 03:25:44;;;;;;;;;;;;;;;19.89;45.54;100294.50;2088866;28;19939;-62
2022/01/08 03:26:44;;;;;;;;;;;;;;;19.90;45.49;100292.63;2093470;28;19912;-62
2022/01/08 03:27:48;;;;;;;;;;;;;;;19.91;45.45;100292.47;2093726;28;19920;-63
2022/01/08 03:28:49;;;;;;;;;;;;;;;19.92;45.57;100285.13;2090121;28;19913;-64
2022/01/08 03:29:49;;;;;;;;;;;;;;;19.92;45.48;100285.13;2089762;28;19913;-63
2022/01/08 03:30:49;;;;;;;;;;;;;;;19.93;45.44;100292.31;2090140;28;19919;-63
2022/01/08 03:31:50;;;;;;;;;;;;;;;19.94;45.52;100290.44;2089992;28;20367;-62
2022/01/08 03:32:51;;;;;;;;;;;;;;;19.93;45.53;100289.59;2089992;28;19940;-63
2022/01/08 03:33:53;;;;;;;;;;;;;;;19.92;45.40;100291.47;2090278;28;19962;-63
2022/01/08 03:34:53;;;;;;;;;;;;;;;19.95;45.35;100290.31;2089748;28;19935;-63
2022/01/08 03:35:53;;;;;;;;;;;;;;;19.96;45.51;100294.75;2089911;28;19919;-62
2022/01/08 03:36:54;;;;;;;;;;;;;;;19.96;45.53;100292.00;2097501;28;20007;-62
2022/01/08 03:37:55;;;;;;;;;;;;;;;19.94;45.36;100283.09;2097728;28;19913;-63
2022/01/08 03:38:55;;;;;;;;;;;;;;;19.94;45.52;100280.34;2081397;28;20407;-63
2022/01/08 03:39:55;;;;;;;;;;;;;;;19.93;45.53;100281.38;2081305;28;19913;-62
2022/01/08 03:40:56;;;;;;;;;;;;;;;19.95;45.51;100290.31;2090127;28;19959;-63
2022/01/08 03:41:56;;;;;;;;;;;;;;;19.94;45.38;100288.56;2090037;28;19913;-63
2022/01/08 03:42:56;;;;;;;;;;;;;;;19.96;45.52;100293.88;2089766;28;19912;-63
2022/01/08 03:43:57;;;;;;;;;;;;;;;19.96;45.47;100286.53;2088966;28;19952;-62
2022/01/08 03:44:57;;;;;;;;;;;;;;;19.95;45.66;100289.44;2089927;28;19939;-62
2022/01/08 03:46:00;;;;;;;;;;;;;;;19.96;45.44;100294.75;2081760;28;19961;-63
2022/01/08 03:47:22;;;;;;;;;;;;;;;19.95;45.55;100284.81;2085383;28;19967;-62
2022/01/08 03:49:24;;;;;;;;;;;;;;;19.95;45.36;100290.31;2088672;28;19924;-63
2022/01/08 03:49:51;;;;;;;;;;;;;;;19.95;45.45;100279.34;2068221;28;19913;-63
2022/01/08 03:50:51;;;;;;;;;;;;;;;19.94;45.53;100287.69;2087776;28;19917;-63
2022/01/08 03:51:55;;;;;;;;;;;;;;;19.93;45.52;100289.59;2089924;28;19928;-63
2022/01/08 03:52:56;;;;;;;;;;;;;;;19.93;45.48;100281.38;2090021;28;20414;-63
2022/01/08 03:53:57;;;;;;;;;;;;;;;19.93;45.55;100281.38;2090154;28;20326;-62
2022/01/08 03:54:58;;;;;;;;;;;;;;;19.92;45.59;100277.78;2089261;28;20011;-63
2022/01/08 03:55:58;;;;;;;;;;;;;;;19.91;45.53;100283.41;2089305;28;20260;-63
2022/01/08 03:56:59;;;;;;;;;;;;;;;19.91;45.53;100286.97;2089687;28;19920;-63
2022/01/08 03:58:02;;;;;;;;;;;;;;;19.92;45.86;100290.59;2089381;28;20002;-63
2022/01/08 03:59:02;;;;;;;;;;;;;;;19.91;45.69;100299.81;2089014;28;20397;-63
2022/01/08 04:00:03;;;;;;;;;;;;;;;19.92;45.59;100294.19;2088917;28;20291;-63
2022/01/08 04:01:03;;;;;;;;;;;;;;;19.90;45.69;100292.63;2082209;28;19928;-63
2022/01/08 04:02:04;;;;;;;;;;;;;;;19.89;45.58;100297.25;2086484;28;20388;-64
2022/01/08 04:03:04;;;;;;;;;;;;;;;19.90;45.58;100295.38;2081632;28;19913;-63
2022/01/08 04:04:04;;;;;;;;;;;;;;;19.88;45.64;100290.03;2089439;28;20009;-63
2022/01/08 04:05:05;;;;;;;;;;;;;;;19.90;45.69;100292.63;2089803;28;19960;-63
2022/01/08 04:06:05;;;;;;;;;;;;;;;19.89;45.57;100290.88;2089696;28;19932;-63
2022/01/08 04:07:05;;;;;;;;;;;;;;;19.88;45.66;100283.69;2089703;28;20391;-64
2022/01/08 04:08:06;;;;;;;;;;;;;;;19.87;45.72;100285.59;2089728;28;19913;-63
2022/01/08 04:09:07;;;;;;;;;;;;;;;19.88;45.67;100283.69;2089540;28;19921;-63
2022/01/08 04:10:07;;;;;;;;;;;;;;;19.87;45.65;100291.06;2089603;28;19940;-63
2022/01/08 04:11:08;;;;;;;;;;;;;;;19.87;45.77;100282.00;2089696;28;19964;-63
2022/01/08 04:12:08;;;;;;;;;;;;;;;19.86;45.71;100286.56;2086119;28;20151;-63
2022/01/08 04:13:13;;;;;;;;;;;;;;;19.86;45.73;100283.00;2080570;28;19917;-63
2022/01/08 04:14:15;;;;;;;;;;;;;;;19.85;45.74;100284.00;2081431;28;19913;-63
2022/01/08 04:15:33;;;;;;;;;;;;;;;19.85;45.78;100278.53;2089619;28;19924;-63
2022/01/08 04:16:36;;;;;;;;;;;;;;;19.84;45.76;100279.53;2089876;28;19913;-64
2022/01/08 04:17:37;;;;;;;;;;;;;;;19.84;45.85;100276.81;2082940;28;19913;-63
2022/01/08 04:18:37;;;;;;;;;;;;;;;19.85;45.91;100267.59;2086070;28;19917;-63
2022/01/08 04:19:37;;;;;;;;;;;;;;;19.83;45.79;100277.81;2089551;28;19966;-64
2022/01/08 04:22:07;;;;;;;;;;;;;;;19.80;45.90;100268.06;2090073;28;19924;-63
2022/01/08 04:23:07;;;;;;;;;;;;;;;19.81;45.90;100268.91;2089240;28;19952;-63
2022/01/08 04:24:08;;;;;;;;;;;;;;;19.80;46.01;100269.94;2089827;28;20015;-63
2022/01/08 04:25:09;;;;;;;;;;;;;;;19.81;45.89;100271.63;2089489;28;19967;-63
2022/01/08 04:26:09;;;;;;;;;;;;;;;19.78;46.08;100267.34;2089194;28;20374;-63
2022/01/08 04:27:10;;;;;;;;;;;;;;;19.77;45.95;100265.63;2081694;28;20135;-63
2022/01/08 04:28:10;;;;;;;;;;;;;;;19.78;46.05;100263.75;2081874;28;20378;-63
2022/01/08 04:29:11;;;;;;;;;;;;;;;19.78;45.99;100271.94;2084502;28;19913;-64
2022/01/08 04:30:11;;;;;;;;;;;;;;;19.77;46.04;100276.56;2089702;28;19952;-63
2022/01/08 04:31:11;;;;;;;;;;;;;;;19.77;46.09;100270.22;2086180;28;20012;-63
2022/01/08 04:32:12;;;;;;;;;;;;;;;19.76;46.08;100269.34;2082775;28;19913;-64
2022/01/08 04:33:12;;;;;;;;;;;;;;;19.76;46.09;100263.03;2089529;28;19921;-64
2022/01/08 04:34:12;;;;;;;;;;;;;;;19.76;46.07;100263.03;2089730;28;19924;-64
2022/01/08 04:35:13;;;;;;;;;;;;;;;19.74;46.10;100259.56;2089829;28;20379;-64
2022/01/08 04:36:13;;;;;;;;;;;;;;;19.75;46.33;100255.84;2089817;28;20291;-64
2022/01/08 04:37:14;;;;;;;;;;;;;;;19.74;46.09;100259.56;2089837;28;19913;-64
2022/01/08 04:38:14;;;;;;;;;;;;;;;19.74;46.12;100260.44;2089829;28;19965;-61
2022/01/08 04:39:15;;;;;;;;;;;;;;;19.74;46.18;100265.91;2089572;28;19913;-62
2022/01/08 04:40:15;;;;;;;;;;;;;;;19.74;46.14;100265.91;2089649;28;19917;-61
2022/01/08 04:41:16;;;;;;;;;;;;;;;19.73;46.15;100264.19;2090048;28;19944;-62
2022/01/08 04:42:16;;;;;;;;;;;;;;;19.73;46.32;100255.97;2090177;28;19939;-63
2022/01/08 04:43:16;;;;;;;;;;;;;;;19.73;46.17;100257.88;2087607;28;19913;-62
2022/01/08 04:44:16;;;;;;;;;;;;;;;19.72;46.24;100262.47;2084744;28;19920;-63
2022/01/08 04:45:17;;;;;;;;;;;;;;;19.72;46.24;100256.13;2091174;28;20017;-62
2022/01/08 04:46:17;;;;;;;;;;;;;;;19.70;46.32;100259.88;2091382;28;19967;-62
2022/01/08 04:47:18;;;;;;;;;;;;;;;19.72;46.29;100264.31;2091384;28;20447;-62
2022/01/08 04:48:18;;;;;;;;;;;;;;;19.70;46.37;100259.88;2091173;28;20260;-62
2022/01/08 04:49:18;;;;;;;;;;;;;;;19.71;46.46;100260.72;2091411;28;19920;-62
2022/01/08 04:50:19;;;;;;;;;;;;;;;19.69;46.36;100260.03;2083540;28;20265;-63
2022/01/08 04:51:19;;;;;;;;;;;;;;;19.69;46.44;100269.06;2085062;28;19920;-62
2022/01/08 04:52:19;;;;;;;;;;;;;;;19.70;46.61;100270.81;2091258;28;19923;-63
2022/01/08 04:53:20;;;;;;;;;;;;;;;19.69;46.40;100269.06;2091141;28;19959;-63
2022/01/08 04:54:20;;;;;;;;;;;;;;;19.68;46.44;100263.78;2091258;28;19921;-63
2022/01/08 04:55:21;;;;;;;;;;;;;;;19.68;46.34;100267.38;2091126;28;20021;-63
2022/01/08 04:56:22;;;;;;;;;;;;;;;19.68;46.52;100267.38;2090436;28;19920;-63
2022/01/08 04:57:22;;;;;;;;;;;;;;;19.69;46.40;100274.53;2091397;28;20249;-63
2022/01/08 04:58:22;;;;;;;;;;;;;;;19.69;46.41;100279.16;2086460;28;19982;-63
2022/01/08 04:59:23;;;;;;;;;;;;;;;19.67;46.50;100276.59;2083223;28;19971;-63
2022/01/08 05:00:23;;;;;;;;;;;;;;;19.67;46.44;100273.88;2090873;28;19913;-63
2022/01/08 05:01:24;;;;;;;;;;;;;;;19.67;46.45;100275.69;2091424;28;20317;-63
2022/01/08 05:02:24;;;;;;;;;;;;;;;19.68;46.43;100280.19;2091406;28;19974;-63
2022/01/08 05:03:25;;;;;;;;;;;;;;;19.66;46.49;100280.28;2091471;28;19962;-64
2022/01/08 05:04:27;;;;;;;;;;;;;;;19.67;46.43;100273.88;2090472;28;19966;-64
2022/01/08 05:05:27;;;;;;;;;;;;;;;19.66;46.43;100269.34;2098735;28;20375;-64
2022/01/08 05:06:27;;;;;;;;;;;;;;;19.65;46.50;100278.59;2090351;28;19917;-64
2022/01/08 05:07:28;;;;;;;;;;;;;;;19.65;46.47;100275.84;2082151;28;19924;-64
2022/01/08 05:08:28;;;;;;;;;;;;;;;19.65;46.46;100272.25;2091022;28;19919;-64
2022/01/08 05:09:28;;;;;;;;;;;;;;;19.65;46.45;100275.84;2091344;28;19927;-64
2022/01/08 05:10:33;;;;;;;;;;;;;;;19.65;46.46;100273.13;2091153;28;19913;-62
2022/01/08 05:11:34;;;;;;;;;;;;;;;19.63;46.58;100277.88;2082169;28;19913;-61
2022/01/08 05:12:34;;;;;;;;;;;;;;;19.65;46.52;100275.00;2082642;28;19913;-61
2022/01/08 05:13:35;;;;;;;;;;;;;;;19.65;46.54;100272.25;2091117;28;19916;-64
2022/01/08 05:14:35;;;;;;;;;;;;;;;19.63;46.51;100272.41;2091382;28;19912;-62
2022/01/08 05:15:35;;;;;;;;;;;;;;;19.63;46.51;100277.88;2091300;28;19920;-63
2022/01/08 05:16:36;;;;;;;;;;;;;;;19.64;46.55;100274.09;2091465;28;19913;-63
2022/01/08 05:17:38;;;;;;;;;;;;;;;19.64;46.55;100268.63;2091344;28;19967;-62
2022/01/08 05:18:38;;;;;;;;;;;;;;;19.63;46.56;100275.13;2090973;28;19916;-62
2022/01/08 05:19:50;;;;;;;;;;;;;;;19.63;46.62;100279.75;2091204;28;19979;-63
2022/01/08 05:21:06;;;;;;;;;;;;;;;19.63;46.65;100277.88;2091218;28;20346;-62
2022/01/08 05:22:07;;;;;;;;;;;;;;;19.62;46.55;100276.16;2080904;28;19920;-63
2022/01/08 05:23:07;;;;;;;;;;;;;;;19.61;46.63;100276.28;2082135;28;19956;-63
2022/01/08 05:24:08;;;;;;;;;;;;;;;19.62;46.54;100283.47;2091198;28;19917;-63
2022/01/08 05:25:08;;;;;;;;;;;;;;;19.62;46.65;100275.25;2091033;28;19917;-63
2022/01/08 05:26:08;;;;;;;;;;;;;;;19.60;46.74;100280.03;2090921;28;19935;-63
2022/01/08 05:27:12;;;;;;;;;;;;;;;19.59;46.68;100279.16;2083008;28;19920;-63
2022/01/08 05:28:13;;;;;;;;;;;;;;;19.59;46.65;100281.91;2085783;28;19919;-63
2022/01/08 05:29:13;;;;;;;;;;;;;;;19.58;46.65;100282.91;2083078;28;19920;-63
2022/01/08 05:30:15;;;;;;;;;;;;;;;19.59;46.68;100284.63;2090748;28;19919;-63
2022/01/08 05:31:17;;;;;;;;;;;;;;;19.57;46.69;100286.66;2088999;28;19999;-63
2022/01/08 05:32:18;;;;;;;;;;;;;;;19.58;46.66;100274.72;2091058;28;19999;-62